Decoded Metar for LFMO (ORANGE in FRANCE) (IATA:N/A) | Meteo·Mobile Aviation Weather
aviador You're here:

LFMO Decoded Metar

ORANGE in FRANCE
Report Time2018-11-12 22:30:00
UTC Time2018-11-12 22:41:12
Flight Rules vfr VFR
Wind130° at 09 kt
W.Decomp.*RWY 14: 8.9 kt HW 1.6 kt LCW
W.Rank130° ranks 9
Current wind is above 130° avg. (7.4)
Visibility9999 m
Phenomena:N/A
Clouds:Few 046 Hf
Overcast 056 Hf
Expected CloudBase > 2,800 ft AGL from Temp-Dew spread
Ceiling5,600 ft
Temp18°C (ISA +3)
Dew Point11°C (64% RH)
AAT15.1°C
QNH1024 hPa
Density Alt381 ft
Elevation180 ft
Report Wrong Elevation
Raw Report
METAR LFMO 122230Z AUTO 13009KT 9999 FEW046 OVC056 18/11 Q1024
NOSIG=

Extra information for LFMO:More info

Metar Taf Metar & Taf Last 4 Metars F.Rules Stats Wind Profile Meteogram Temp Stats Airport Information Weather charts Add Link Nearby VenuesMetar ALERT Operation Metar Decoded Social comments